createdAt,value
2022-09-06T00:00:19.052Z,17.48
2022-09-06T00:05:41.502Z,17.49
2022-09-06T00:11:02.453Z,17.60
2022-09-06T00:16:27.377Z,17.60
2022-09-06T00:21:50.800Z,17.61
2022-09-06T00:27:11.541Z,17.57
2022-09-06T00:32:33.029Z,17.64
2022-09-06T00:37:58.462Z,17.61
2022-09-06T00:43:19.246Z,17.51
2022-09-06T00:48:41.629Z,17.54
2022-09-06T00:54:07.866Z,17.43
2022-09-06T00:59:31.339Z,17.33
2022-09-06T01:04:52.873Z,17.31
2022-09-06T01:10:22.761Z,17.36
2022-09-06T01:15:43.670Z,17.26
2022-09-06T01:21:10.680Z,17.20
2022-09-06T01:27:15.110Z,17.11
2022-09-06T01:32:49.113Z,17.13
2022-09-06T01:38:10.780Z,17.21
2022-09-06T01:43:38.661Z,17.26
2022-09-06T01:49:17.247Z,17.19
2022-09-06T01:54:51.506Z,17.23
2022-09-06T02:00:14.918Z,17.14
2022-09-06T02:05:38.532Z,17.14
2022-09-06T02:11:02.757Z,17.13
2022-09-06T02:16:26.881Z,17.18
2022-09-06T02:21:49.375Z,17.24
2022-09-06T02:27:12.100Z,17.42
2022-09-06T02:32:39.314Z,17.55
2022-09-06T02:37:59.919Z,17.57
2022-09-06T02:43:21.489Z,17.49
2022-09-06T02:48:42.066Z,17.34
2022-09-06T02:54:02.656Z,17.17
2022-09-06T02:59:23.209Z,17.05
2022-09-06T03:04:43.907Z,17.06
2022-09-06T03:10:05.112Z,17.11
2022-09-06T03:15:26.005Z,17.24
2022-09-06T03:20:49.788Z,17.27
2022-09-06T03:26:10.488Z,17.18
2022-09-06T03:31:30.949Z,17.10
2022-09-06T03:36:51.693Z,17.01
2022-09-06T03:42:12.946Z,16.93
2022-09-06T03:47:33.916Z,16.81
2022-09-06T03:52:54.602Z,16.75
2022-09-06T03:58:16.538Z,16.63
2022-09-06T04:03:39.097Z,16.52
2022-09-06T04:08:59.639Z,16.51
2022-09-06T04:14:20.311Z,16.28
2022-09-06T04:19:40.879Z,16.15
2022-09-06T04:25:01.649Z,16.13
2022-09-06T04:30:22.250Z,16.17
2022-09-06T04:35:42.859Z,16.14
2022-09-06T04:41:04.161Z,16.10
2022-09-06T04:46:30.343Z,16.17
2022-09-06T04:51:51.176Z,16.32
2022-09-06T04:57:11.973Z,16.30
2022-09-06T05:02:33.439Z,16.24
2022-09-06T05:07:55.152Z,16.25
2022-09-06T05:13:15.722Z,16.33
2022-09-06T05:18:36.470Z,16.39
2022-09-06T05:23:58.858Z,16.44
2022-09-06T05:29:19.886Z,16.66
2022-09-06T05:34:40.601Z,16.89
2022-09-06T05:40:01.939Z,16.99
2022-09-06T05:45:23.079Z,17.22
2022-09-06T05:50:43.973Z,17.24
2022-09-06T05:56:05.634Z,17.41
2022-09-06T06:01:28.485Z,17.19
2022-09-06T06:06:49.587Z,17.18
2022-09-06T06:12:10.441Z,17.36
2022-09-06T06:17:31.236Z,17.41
2022-09-06T06:22:51.720Z,17.49
2022-09-06T06:28:12.268Z,17.56
2022-09-06T06:33:33.434Z,17.79
2022-09-06T06:38:55.437Z,17.88
2022-09-06T06:44:16.273Z,17.96
2022-09-06T06:49:36.825Z,17.93
2022-09-06T06:54:57.487Z,17.96
2022-09-06T07:00:18.118Z,17.94
2022-09-06T07:11:24.331Z,18.16
2022-09-06T07:16:46.343Z,18.22
2022-09-06T07:22:09.390Z,18.41
2022-09-06T07:27:47.314Z,18.51
2022-09-06T07:33:09.100Z,18.71
2022-09-06T07:38:30.492Z,18.85
2022-09-06T07:43:57.254Z,18.89
2022-09-06T07:49:18.088Z,18.95
2022-09-06T07:54:38.611Z,19.01
2022-09-06T07:59:59.123Z,18.97
2022-09-06T08:11:00.573Z,19.03
2022-09-06T08:16:22.178Z,18.99
2022-09-06T08:21:42.822Z,18.98
2022-09-06T08:27:03.801Z,18.92
2022-09-06T08:32:24.436Z,19.06
2022-09-06T08:37:45.098Z,19.09
2022-09-06T08:43:21.615Z,19.28
2022-09-06T08:48:42.951Z,19.57
2022-09-06T08:54:12.424Z,19.79
2022-09-06T08:59:39.822Z,20.12
2022-09-06T09:05:06.261Z,20.32
2022-09-06T09:10:37.042Z,20.40
2022-09-06T09:15:57.801Z,20.58
2022-09-06T09:21:26.799Z,20.71
2022-09-06T09:27:11.366Z,20.82
2022-09-06T09:32:36.876Z,20.97
2022-09-06T09:38:23.257Z,21.06
2022-09-06T09:44:00.051Z,21.07
2022-09-06T09:49:24.435Z,21.17
2022-09-06T09:54:46.919Z,21.16
2022-09-06T10:00:13.273Z,21.36
2022-09-06T10:05:34.084Z,21.56
2022-09-06T10:10:54.670Z,21.75
2022-09-06T10:16:15.645Z,21.74
2022-09-06T10:21:36.239Z,21.66
2022-09-06T10:27:02.047Z,21.56
2022-09-06T10:32:46.122Z,21.66
2022-09-06T10:38:15.751Z,21.80
2022-09-06T10:44:21.109Z,22.00
2022-09-06T10:49:48.769Z,22.00
2022-09-06T10:55:14.414Z,22.13
2022-09-06T11:00:47.508Z,22.33
2022-09-06T11:06:10.531Z,22.47
2022-09-06T11:11:52.961Z,22.41
2022-09-06T11:17:33.154Z,22.50
2022-09-06T11:23:31.002Z,22.54
2022-09-06T11:28:58.543Z,22.62
2022-09-06T11:34:33.980Z,22.58
2022-09-06T11:40:29.959Z,22.64
2022-09-06T11:45:53.023Z,22.73
2022-09-06T11:51:33.682Z,22.90
2022-09-06T11:57:02.478Z,22.96
2022-09-06T12:02:43.130Z,23.09
2022-09-06T12:08:25.842Z,23.13
2022-09-06T12:13:46.903Z,23.26
2022-09-06T12:19:08.423Z,23.37
2022-09-06T12:24:35.329Z,23.36
2022-09-06T12:29:59.703Z,23.38
2022-09-06T12:41:05.849Z,23.58
2022-09-06T12:46:30.015Z,23.65
2022-09-06T12:51:50.811Z,23.64
2022-09-06T12:57:23.616Z,23.64
2022-09-06T13:02:56.733Z,23.64
2022-09-06T13:08:26.011Z,23.62
2022-09-06T13:13:51.904Z,23.68
2022-09-06T13:19:19.413Z,23.61
2022-09-06T13:24:47.055Z,23.61
2022-09-06T13:30:10.474Z,23.54
2022-09-06T13:35:34.582Z,23.54
2022-09-06T13:41:14.678Z,23.49
2022-09-06T13:46:36.603Z,23.45
2022-09-06T13:52:03.262Z,23.56
2022-09-06T13:57:24.724Z,23.64
2022-09-06T14:02:47.461Z,23.63
2022-09-06T14:08:08.327Z,23.59
2022-09-06T14:13:30.278Z,23.57
2022-09-06T14:18:52.109Z,23.48
2022-09-06T14:24:12.936Z,23.33
2022-09-06T14:29:35.223Z,23.31
2022-09-06T14:34:56.096Z,23.29
2022-09-06T14:40:17.480Z,23.37
2022-09-06T14:45:38.072Z,23.41
2022-09-06T14:50:59.515Z,23.39
2022-09-06T14:56:21.180Z,23.35
2022-09-06T15:01:42.029Z,23.26
2022-09-06T15:07:02.989Z,23.16
2022-09-06T15:12:24.713Z,22.99
2022-09-06T15:17:46.104Z,22.77
2022-09-06T15:23:34.281Z,22.65
2022-09-06T15:28:48.181Z,22.59
2022-09-06T15:34:10.511Z,22.51
2022-09-06T15:39:31.413Z,22.38
2022-09-06T15:44:52.234Z,22.27
2022-09-06T15:50:12.991Z,21.89
2022-09-06T15:55:52.024Z,21.53
2022-09-06T16:01:18.418Z,21.34
2022-09-06T16:06:42.658Z,21.09
2022-09-06T16:12:03.930Z,20.94
2022-09-06T16:17:27.493Z,20.98
2022-09-06T16:22:49.500Z,21.07
2022-09-06T16:28:10.378Z,21.00
2022-09-06T16:33:32.605Z,21.00
2022-09-06T16:38:54.912Z,21.15
2022-09-06T16:44:18.018Z,21.21
2022-09-06T16:49:38.983Z,21.13
2022-09-06T16:55:00.284Z,21.09
2022-09-06T17:00:20.922Z,21.09
2022-09-06T17:05:41.731Z,21.02
2022-09-06T17:11:14.737Z,20.93
2022-09-06T17:16:54.328Z,20.90
2022-09-06T17:22:15.143Z,20.65
2022-09-06T17:27:36.051Z,20.69
2022-09-06T17:32:56.940Z,20.79
2022-09-06T17:38:17.927Z,20.76
2022-09-06T17:43:38.695Z,20.66
2022-09-06T17:54:20.018Z,20.84
2022-09-06T17:59:40.643Z,20.77
2022-09-06T18:05:01.405Z,20.53
2022-09-06T18:10:21.854Z,20.41
2022-09-06T18:15:42.721Z,20.39
2022-09-06T18:21:06.945Z,20.39
2022-09-06T18:26:27.610Z,20.29
2022-09-06T18:31:48.511Z,20.17
2022-09-06T18:37:09.251Z,20.04
2022-09-06T18:42:30.408Z,19.99
2022-09-06T18:47:50.976Z,19.96
2022-09-06T18:53:11.911Z,19.82
2022-09-06T18:58:33.458Z,19.69
2022-09-06T19:03:55.602Z,19.71
2022-09-06T19:09:17.268Z,19.62
2022-09-06T19:14:39.265Z,19.62
2022-09-06T19:20:00.845Z,19.54
2022-09-06T19:25:21.732Z,19.58
2022-09-06T19:30:42.401Z,19.61
2022-09-06T19:36:11.657Z,19.56
2022-09-06T19:41:39.002Z,19.33
2022-09-06T19:47:00.331Z,19.22
2022-09-06T19:52:21.127Z,19.18
2022-09-06T19:57:41.954Z,19.27
2022-09-06T20:03:02.632Z,19.24
2022-09-06T20:08:23.534Z,19.17
2022-09-06T20:13:44.299Z,19.22
2022-09-06T20:19:05.473Z,19.07
2022-09-06T20:24:28.236Z,18.99
2022-09-06T20:29:48.882Z,18.69
2022-09-06T20:35:09.653Z,18.64
2022-09-06T20:40:30.895Z,18.61
2022-09-06T20:45:52.225Z,18.59
2022-09-06T20:51:19.497Z,18.42
2022-09-06T20:56:41.978Z,18.44
2022-09-06T21:02:02.939Z,18.48
2022-09-06T21:07:23.666Z,18.47
2022-09-06T21:12:44.555Z,18.49
2022-09-06T21:18:05.720Z,18.54
2022-09-06T21:23:27.618Z,18.45
2022-09-06T21:28:49.279Z,18.42
2022-09-06T21:34:16.331Z,18.50
2022-09-06T21:39:38.360Z,18.58
2022-09-06T21:44:59.137Z,18.53
2022-09-06T21:50:19.956Z,18.55
2022-09-06T21:55:41.187Z,18.56
2022-09-06T22:01:03.814Z,18.62
2022-09-06T22:06:26.613Z,18.53
2022-09-06T22:11:47.319Z,18.40
2022-09-06T22:17:09.300Z,18.32
2022-09-06T22:22:30.108Z,18.23
2022-09-06T22:27:50.673Z,18.21
2022-09-06T22:33:11.470Z,18.15
2022-09-06T22:38:33.287Z,18.12
2022-09-06T22:43:54.626Z,18.13
2022-09-06T22:49:15.262Z,18.10
2022-09-06T22:54:36.469Z,18.07
2022-09-06T22:59:57.086Z,18.05
2022-09-06T23:05:17.692Z,18.04
2022-09-06T23:10:43.317Z,18.00
2022-09-06T23:16:09.044Z,18.05
2022-09-06T23:21:29.865Z,18.09
2022-09-06T23:26:50.687Z,18.07
2022-09-06T23:32:11.241Z,18.06
2022-09-06T23:37:31.925Z,18.09
2022-09-06T23:42:52.450Z,18.06
2022-09-06T23:48:13.135Z,18.02
2022-09-06T23:53:33.909Z,18.01
2022-09-06T23:58:55.070Z,18.04
